Time;durP1;ratioP1;P1;durP2;ratioP2;P2;SDS_P1;SDS_P2;PMS_P1;PMS_P2;Temp;Humidity;BMP_temperature;BMP_pressure;BME280_temperature;BME280_humidity;BME280_pressure;Samples;Min_cycle;Max_cycle;Signal;HPM_P1;HPM_P2
2021/01/13 00:00:43;;;;;;;1.70;1.50;;;1.80;98.20;;;;;;6149682;23;20988;-74
2021/01/13 00:03:10;;;;;;;1.70;1.50;;;1.80;98.20;;;;;;6152704;23;20417;-77
2021/01/13 00:05:37;;;;;;;1.70;1.40;;;1.80;98.20;;;;;;6154056;23;20424;-76
2021/01/13 00:08:05;;;;;;;1.70;1.60;;;1.80;98.20;;;;;;6155899;23;20488;-75
2021/01/13 00:10:31;;;;;;;1.70;1.60;;;1.80;98.20;;;;;;6154381;23;20432;-77
2021/01/13 00:12:58;;;;;;;1.70;1.50;;;1.80;98.20;;;;;;6154578;23;20491;-77
2021/01/13 00:15:24;;;;;;;1.70;1.60;;;1.70;98.20;;;;;;6164865;23;20418;-77
2021/01/13 00:17:51;;;;;;;1.70;1.60;;;1.70;98.20;;;;;;6153851;23;20511;-76
2021/01/13 00:20:17;;;;;;;1.70;1.50;;;1.70;98.20;;;;;;6153281;23;20484;-77
2021/01/13 00:22:46;;;;;;;1.67;1.50;;;1.70;98.20;;;;;;6153841;23;20444;-76
2021/01/13 00:25:16;;;;;;;1.70;1.50;;;1.70;98.20;;;;;;6154138;23;20452;-77
2021/01/13 00:27:42;;;;;;;1.67;1.50;;;1.70;98.20;;;;;;6153988;23;20762;-77
2021/01/13 00:30:10;;;;;;;1.70;1.60;;;1.70;98.20;;;;;;6154622;23;20796;-75
2021/01/13 00:32:36;;;;;;;1.70;1.50;;;1.70;98.20;;;;;;6154251;23;20441;-76
2021/01/13 00:35:04;;;;;;;1.73;1.63;;;1.70;98.20;;;;;;6154344;23;20425;-77
2021/01/13 00:37:31;;;;;;;1.67;1.53;;;1.80;98.20;;;;;;6154825;23;20425;-77
2021/01/13 00:39:57;;;;;;;1.70;1.50;;;1.80;98.20;;;;;;6155694;23;20414;-77
2021/01/13 00:42:25;;;;;;;1.70;1.50;;;1.80;98.20;;;;;;6155511;23;20428;-77
2021/01/13 00:44:51;;;;;;;1.70;1.50;;;1.80;98.20;;;;;;6155391;23;20918;-77
2021/01/13 00:47:18;;;;;;;1.70;1.50;;;1.80;98.20;;;;;;6156140;23;20432;-75
2021/01/13 00:49:44;;;;;;;1.70;1.60;;;1.90;98.20;;;;;;6156631;23;20530;-75
2021/01/13 00:52:11;;;;;;;1.67;1.50;;;1.90;98.20;;;;;;6155371;23;20421;-75
2021/01/13 00:54:37;;;;;;;1.70;1.50;;;1.90;98.20;;;;;;6155135;23;20746;-75
2021/01/13 00:57:06;;;;;;;1.67;1.53;;;1.90;98.20;;;;;;6160350;23;20416;-76
2021/01/13 00:59:35;;;;;;;1.70;1.50;;;1.90;98.20;;;;;;6160917;23;20487;-75
2021/01/13 01:02:01;;;;;;;1.70;1.50;;;1.90;98.20;;;;;;6170066;23;20420;-75
2021/01/13 01:04:28;;;;;;;1.67;1.50;;;1.90;98.20;;;;;;6162179;23;20413;-76
2021/01/13 01:06:54;;;;;;;1.70;1.50;;;1.90;98.20;;;;;;6159430;23;20417;-76
2021/01/13 01:09:21;;;;;;;1.67;1.50;;;1.90;98.20;;;;;;6165271;23;20798;-74
2021/01/13 01:11:48;;;;;;;1.67;1.50;;;2.00;98.20;;;;;;6169484;23;20416;-76
2021/01/13 01:14:14;;;;;;;1.70;1.50;;;2.00;98.20;;;;;;6157668;23;20448;-77
2021/01/13 01:16:43;;;;;;;1.70;1.47;;;2.00;98.20;;;;;;6167540;23;20413;-73
2021/01/13 01:19:10;;;;;;;1.70;1.50;;;2.00;98.20;;;;;;6156905;23;20440;-75
2021/01/13 01:21:39;;;;;;;1.70;1.50;;;2.00;98.20;;;;;;6157874;23;20424;-76
2021/01/13 01:24:07;;;;;;;1.70;1.50;;;2.00;98.20;;;;;;6157653;23;20417;-78
2021/01/13 01:26:33;;;;;;;1.70;1.50;;;1.90;98.20;;;;;;6157024;23;20420;-75
2021/01/13 01:29:00;;;;;;;1.70;1.50;;;1.90;98.20;;;;;;6158493;23;20806;-76
2021/01/13 01:31:26;;;;;;;1.67;1.40;;;1.90;98.20;;;;;;6157747;23;20425;-76
2021/01/13 01:33:53;;;;;;;1.70;1.47;;;1.90;98.20;;;;;;6156602;23;20444;-77
2021/01/13 01:36:20;;;;;;;1.70;1.50;;;1.90;98.20;;;;;;6158164;23;20421;-75
2021/01/13 01:38:46;;;;;;;1.63;1.50;;;1.90;98.20;;;;;;6157353;23;20484;-77
2021/01/13 01:41:15;;;;;;;1.63;1.50;;;1.90;98.20;;;;;;6159393;23;20432;-77
2021/01/13 01:43:44;;;;;;;1.63;1.40;;;1.90;98.20;;;;;;6157672;23;20418;-77
2021/01/13 01:46:11;;;;;;;1.70;1.50;;;1.90;98.20;;;;;;6157925;23;20432;-76
2021/01/13 01:48:50;;;;;;;1.70;1.60;;;1.90;98.20;;;;;;6156829;23;20455;-76
2021/01/13 01:51:22;;;;;;;1.70;1.50;;;1.90;98.20;;;;;;6155478;23;20781;-78
2021/01/13 01:54:15;;;;;;;1.70;1.50;;;1.90;98.20;;;;;;6156398;23;20434;-76
2021/01/13 01:56:43;;;;;;;1.70;1.50;;;1.90;98.20;;;;;;6156463;23;20417;-78
2021/01/13 01:59:11;;;;;;;1.70;1.40;;;1.90;98.20;;;;;;6155654;23;20498;-75
2021/01/13 02:01:39;;;;;;;1.63;1.50;;;1.90;98.20;;;;;;6154164;23;20479;-77
2021/01/13 02:04:12;;;;;;;1.70;1.60;;;1.90;98.20;;;;;;6154379;23;20432;-77
2021/01/13 02:07:03;;;;;;;1.67;1.50;;;1.90;98.20;;;;;;6155710;23;20480;-76
2021/01/13 02:09:33;;;;;;;1.70;1.50;;;1.80;98.20;;;;;;6152628;23;20447;-77
2021/01/13 02:12:00;;;;;;;1.70;1.60;;;1.80;98.20;;;;;;6155969;23;20423;-77
2021/01/13 02:14:27;;;;;;;1.70;1.50;;;1.80;98.20;;;;;;6154784;23;20451;-76
2021/01/13 02:16:55;;;;;;;1.70;1.50;;;1.90;98.20;;;;;;6156921;23;20429;-77
2021/01/13 02:19:56;;;;;;;1.80;1.70;;;1.80;98.20;;;;;;6155253;23;20945;-76
2021/01/13 02:22:26;;;;;;;1.70;1.57;;;1.80;98.20;;;;;;6164786;23;20425;-75
2021/01/13 02:25:47;;;;;;;1.63;1.50;;;1.80;98.20;;;;;;6156348;23;20432;-77
2021/01/13 02:28:20;;;;;;;1.70;1.50;;;1.70;98.20;;;;;;6156104;23;21020;-77
2021/01/13 02:31:05;;;;;;;1.70;1.40;;;1.70;98.20;;;;;;6157012;23;20402;-76
2021/01/13 02:33:37;;;;;;;1.67;1.50;;;1.70;98.20;;;;;;6155871;23;20497;-79
2021/01/13 02:36:16;;;;;;;1.70;1.50;;;1.60;98.20;;;;;;6155706;23;21060;-75
2021/01/13 02:38:45;;;;;;;1.70;1.50;;;1.60;98.20;;;;;;6154048;23;20459;-76
2021/01/13 02:41:17;;;;;;;1.70;1.53;;;1.50;98.20;;;;;;6154959;23;20429;-75
2021/01/13 02:43:54;;;;;;;1.80;1.70;;;1.50;98.20;;;;;;6154089;23;20441;-76
2021/01/13 02:46:57;;;;;;;1.70;1.50;;;1.50;98.20;;;;;;6154033;23;20409;-75
2021/01/13 02:49:26;;;;;;;1.70;1.60;;;1.40;98.20;;;;;;6155165;23;20473;-77
2021/01/13 02:51:55;;;;;;;1.80;1.70;;;1.40;98.20;;;;;;6154042;23;20424;-77
2021/01/13 02:54:31;;;;;;;1.70;1.50;;;1.40;98.20;;;;;;6153894;23;20452;-75
2021/01/13 02:57:07;;;;;;;1.70;1.60;;;1.30;98.20;;;;;;6154961;23;20413;-78
2021/01/13 02:59:38;;;;;;;1.70;1.60;;;1.30;98.20;;;;;;6154683;23;20441;-78
2021/01/13 03:02:09;;;;;;;1.70;1.60;;;1.40;98.20;;;;;;6153924;23;20508;-75
2021/01/13 03:04:36;;;;;;;1.70;1.57;;;1.40;98.20;;;;;;6154164;23;20409;-78
2021/01/13 03:07:11;;;;;;;1.70;1.50;;;1.40;98.20;;;;;;6154499;23;20472;-78
2021/01/13 03:09:39;;;;;;;1.70;1.53;;;1.40;98.20;;;;;;6154663;23;20851;-77
2021/01/13 03:12:18;;;;;;;2.03;1.87;;;1.40;98.20;;;;;;6154313;23;20421;-75
2021/01/13 03:14:52;;;;;;;1.70;1.50;;;1.40;98.20;;;;;;6153203;23;20405;-78
2021/01/13 03:17:58;;;;;;;1.70;1.50;;;1.40;98.20;;;;;;6155106;23;20412;-77
2021/01/13 03:20:32;;;;;;;1.70;1.50;;;1.40;98.20;;;;;;6151945;23;20416;-77
2021/01/13 03:23:09;;;;;;;1.67;1.40;;;1.40;98.20;;;;;;6152385;23;20901;-76
2021/01/13 03:25:38;;;;;;;1.70;1.60;;;1.50;98.20;;;;;;6153399;23;20742;-76
2021/01/13 03:28:07;;;;;;;1.67;1.50;;;1.50;98.20;;;;;;6154433;23;20434;-77
2021/01/13 03:30:35;;;;;;;1.70;1.57;;;1.50;98.20;;;;;;6154095;23;20417;-77
2021/01/13 03:33:39;;;;;;;1.80;1.70;;;1.50;98.20;;;;;;6153884;23;20445;-77
2021/01/13 03:36:09;;;;;;;1.90;1.80;;;1.50;98.20;;;;;;6153959;23;20432;-76
2021/01/13 03:38:55;;;;;;;1.70;1.50;;;1.50;98.20;;;;;;6153282;23;20449;-77
2021/01/13 03:41:29;;;;;;;1.70;1.60;;;1.50;98.20;;;;;;6152458;23;20771;-76
2021/01/13 03:44:08;;;;;;;1.80;1.70;;;1.50;98.20;;;;;;6154321;23;20760;-79
2021/01/13 03:46:36;;;;;;;1.70;1.60;;;1.50;98.20;;;;;;6154268;23;20794;-76
2021/01/13 03:49:04;;;;;;;1.77;1.67;;;1.60;98.20;;;;;;6154772;23;20437;-76
2021/01/13 03:52:01;;;;;;;1.70;1.50;;;1.60;98.20;;;;;;6154167;23;20421;-76
2021/01/13 03:54:33;;;;;;;1.70;1.50;;;1.60;98.20;;;;;;6145844;23;20452;-77
2021/01/13 03:57:01;;;;;;;1.70;1.60;;;1.70;98.20;;;;;;6155701;23;20401;-76
2021/01/13 03:59:40;;;;;;;1.70;1.60;;;1.70;98.20;;;;;;6155913;23;20488;-76
2021/01/13 04:02:09;;;;;;;1.70;1.60;;;1.70;98.20;;;;;;6156312;23;20431;-78
2021/01/13 04:05:07;;;;;;;1.73;1.63;;;1.80;98.20;;;;;;6156358;23;20413;-78
2021/01/13 04:07:37;;;;;;;1.70;1.50;;;1.80;98.20;;;;;;6154803;23;20405;-75
2021/01/13 04:10:10;;;;;;;1.70;1.50;;;1.80;98.20;;;;;;6154119;23;20412;-77
2021/01/13 04:12:55;;;;;;;1.63;1.53;;;1.80;98.20;;;;;;6165347;23;20433;-76
2021/01/13 04:15:26;;;;;;;1.70;1.50;;;1.80;98.20;;;;;;6155365;23;20405;-76
2021/01/13 04:17:54;;;;;;;1.70;1.50;;;1.90;98.20;;;;;;6156860;23;20966;-75
2021/01/13 04:20:22;;;;;;;1.70;1.50;;;1.80;98.20;;;;;;6155240;23;20484;-78
2021/01/13 04:22:49;;;;;;;1.63;1.43;;;1.80;98.20;;;;;;6155923;23;20451;-78
2021/01/13 04:25:16;;;;;;;1.70;1.50;;;1.80;98.20;;;;;;6154786;23;20665;-78
2021/01/13 04:27:43;;;;;;;1.70;1.50;;;1.80;98.20;;;;;;6154892;23;20929;-77
2021/01/13 04:30:11;;;;;;;1.70;1.40;;;1.80;98.20;;;;;;6155867;23;20421;-76
2021/01/13 04:32:38;;;;;;;1.67;1.50;;;1.90;98.20;;;;;;6154754;23;20426;-76
2021/01/13 04:35:07;;;;;;;1.70;1.50;;;1.90;98.20;;;;;;6153541;23;20755;-74
2021/01/13 04:37:35;;;;;;;1.67;1.40;;;1.90;98.20;;;;;;6155461;23;20421;-78
2021/01/13 04:40:24;;;;;;;1.70;1.50;;;1.90;98.20;;;;;;6156608;23;20405;-77
2021/01/13 04:43:00;;;;;;;1.67;1.43;;;1.90;98.20;;;;;;6157740;23;20456;-77
2021/01/13 04:45:36;;;;;;;1.70;1.50;;;2.00;98.20;;;;;;6156620;23;20415;-77
2021/01/13 04:48:05;;;;;;;1.70;1.50;;;2.00;98.20;;;;;;6157492;23;20441;-77
2021/01/13 04:50:36;;;;;;;1.70;1.60;;;2.00;98.20;;;;;;6156950;23;20759;-77
2021/01/13 04:53:09;;;;;;;1.70;1.50;;;2.00;98.20;;;;;;6154160;23;20624;-77
2021/01/13 04:55:47;;;;;;;1.67;1.50;;;2.10;98.20;;;;;;6153569;23;20748;-78
2021/01/13 04:59:00;;;;;;;1.67;1.40;;;2.10;98.20;;;;;;6153339;23;20524;-79
2021/01/13 05:02:04;;;;;;;1.70;1.60;;;2.10;98.20;;;;;;6152351;23;20429;-80
2021/01/13 05:05:03;;;;;;;1.70;1.50;;;2.10;98.20;;;;;;6153516;23;20424;-80
2021/01/13 05:07:35;;;;;;;1.70;1.50;;;2.10;98.20;;;;;;6157209;23;20406;-81
2021/01/13 05:10:06;;;;;;;1.63;1.40;;;2.10;98.20;;;;;;6156677;23;20484;-79
2021/01/13 05:12:53;;;;;;;1.67;1.40;;;2.20;98.20;;;;;;6154838;23;20688;-80
2021/01/13 05:15:25;;;;;;;1.70;1.50;;;2.20;98.20;;;;;;6153840;23;20405;-79
2021/01/13 05:18:07;;;;;;;1.70;1.53;;;2.20;98.20;;;;;;6155541;23;20405;-80
2021/01/13 05:20:38;;;;;;;1.70;1.50;;;2.20;98.20;;;;;;6155959;23;20913;-80
2021/01/13 05:23:06;;;;;;;1.63;1.40;;;2.20;98.20;;;;;;6155834;23;20875;-81
2021/01/13 05:25:41;;;;;;;1.70;1.50;;;2.20;98.20;;;;;;6155108;23;20488;-80
2021/01/13 05:28:13;;;;;;;1.67;1.50;;;2.20;98.20;;;;;;6155828;23;20440;-80
2021/01/13 05:30:42;;;;;;;1.63;1.40;;;2.20;98.20;;;;;;6156285;23;20406;-80
2021/01/13 05:33:12;;;;;;;1.70;1.50;;;2.20;98.20;;;;;;6155626;23;20445;-80
2021/01/13 05:35:41;;;;;;;1.67;1.50;;;2.20;98.20;;;;;;6154143;23;20431;-80
2021/01/13 05:38:15;;;;;;;1.70;1.50;;;2.20;98.20;;;;;;6156057;23;20455;-81
2021/01/13 05:40:47;;;;;;;1.70;1.50;;;2.20;98.20;;;;;;6154308;23;20405;-81
2021/01/13 05:43:15;;;;;;;1.67;1.40;;;2.20;98.20;;;;;;6155405;23;20797;-81
2021/01/13 05:45:42;;;;;;;1.70;1.50;;;2.20;98.20;;;;;;6155880;23;20432;-80
2021/01/13 05:48:23;;;;;;;1.80;1.70;;;2.20;98.20;;;;;;6154607;23;20437;-78
2021/01/13 05:50:53;;;;;;;1.63;1.40;;;2.20;98.20;;;;;;6156160;23;20421;-81
2021/01/13 05:53:24;;;;;;;1.63;1.47;;;2.20;98.20;;;;;;6158015;23;20452;-78
2021/01/13 05:55:52;;;;;;;1.63;1.40;;;2.20;98.20;;;;;;6159509;23;20417;-79
2021/01/13 05:58:26;;;;;;;1.67;1.40;;;2.20;98.20;;;;;;6157244;23;20441;-80
2021/01/13 06:00:55;;;;;;;1.67;1.40;;;2.20;98.20;;;;;;6158599;23;20906;-80
2021/01/13 06:03:24;;;;;;;1.73;1.63;;;2.20;98.20;;;;;;6156992;23;20414;-78
2021/01/13 06:05:53;;;;;;;1.67;1.50;;;2.20;98.20;;;;;;6158949;23;20724;-80
2021/01/13 06:08:26;;;;;;;1.60;1.40;;;2.30;98.20;;;;;;6156921;23;20441;-80
2021/01/13 06:10:57;;;;;;;1.63;1.40;;;2.30;98.20;;;;;;6159179;23;20464;-80
2021/01/13 06:13:29;;;;;;;1.63;1.47;;;2.30;98.20;;;;;;6157983;23;20477;-78
2021/01/13 06:15:59;;;;;;;1.63;1.40;;;2.30;98.20;;;;;;6158494;23;20405;-78
2021/01/13 06:18:27;;;;;;;1.70;1.47;;;2.30;98.20;;;;;;6154645;23;20468;-80
2021/01/13 06:20:57;;;;;;;1.67;1.40;;;2.30;98.20;;;;;;6156296;23;20445;-77
2021/01/13 06:23:27;;;;;;;1.70;1.50;;;2.30;98.20;;;;;;6154834;23;20402;-79
2021/01/13 06:25:55;;;;;;;1.70;1.50;;;2.30;98.20;;;;;;6156415;23;20504;-79
2021/01/13 06:28:27;;;;;;;1.70;1.50;;;2.40;98.20;;;;;;6155416;23;20441;-76
2021/01/13 06:31:16;;;;;;;1.70;1.50;;;2.40;98.20;;;;;;6166216;23;20914;-78
2021/01/13 06:34:14;;;;;;;1.67;1.43;;;2.40;98.20;;;;;;6164172;23;20445;-78
2021/01/13 06:36:58;;;;;;;1.70;1.40;;;2.40;98.20;;;;;;6157074;23;20406;-80
2021/01/13 06:39:26;;;;;;;2.20;2.00;;;2.30;98.20;;;;;;6155611;23;20456;-79
2021/01/13 06:41:53;;;;;;;1.70;1.50;;;2.40;98.20;;;;;;6155899;23;20428;-79
2021/01/13 06:44:19;;;;;;;1.67;1.50;;;2.40;98.20;;;;;;6152538;23;20429;-78
2021/01/13 06:46:47;;;;;;;1.67;1.43;;;2.40;98.20;;;;;;6154516;23;20772;-82
2021/01/13 06:49:17;;;;;;;1.70;1.50;;;2.40;98.20;;;;;;6156639;23;20535;-77
2021/01/13 06:51:45;;;;;;;1.67;1.47;;;2.40;98.20;;;;;;6155312;23;20409;-79
2021/01/13 06:54:13;;;;;;;1.63;1.40;;;2.40;98.20;;;;;;6156047;23;20449;-79
2021/01/13 06:56:49;;;;;;;1.70;1.40;;;2.40;98.20;;;;;;6154164;23;20433;-78
2021/01/13 06:59:16;;;;;;;1.67;1.50;;;2.30;98.20;;;;;;6154082;23;20441;-77
2021/01/13 07:01:50;;;;;;;1.63;1.40;;;2.30;98.20;;;;;;6166364;23;20421;-75
2021/01/13 07:04:17;;;;;;;1.70;1.50;;;2.30;98.20;;;;;;6158248;23;20420;-77
2021/01/13 07:07:00;;;;;;;1.60;1.40;;;2.30;98.20;;;;;;6156968;23;20421;-77
2021/01/13 07:09:37;;;;;;;1.63;1.40;;;2.20;98.20;;;;;;6156319;23;20445;-77
2021/01/13 07:12:12;;;;;;;1.60;1.40;;;2.20;98.20;;;;;;6158162;23;20446;-78
2021/01/13 07:14:41;;;;;;;1.80;1.70;;;2.20;98.20;;;;;;6158023;23;20425;-78
2021/01/13 07:17:10;;;;;;;1.63;1.50;;;2.20;98.20;;;;;;6156008;23;20501;-77
2021/01/13 07:19:37;;;;;;;1.70;1.40;;;2.20;98.20;;;;;;6157360;23;20437;-75
2021/01/13 07:22:05;;;;;;;1.70;1.50;;;2.10;98.20;;;;;;6157447;23;20494;-78
2021/01/13 07:24:32;;;;;;;1.70;1.50;;;2.10;98.20;;;;;;6160377;23;20424;-77
2021/01/13 07:26:59;;;;;;;1.63;1.40;;;2.10;98.20;;;;;;6159800;23;20421;-75
2021/01/13 07:29:28;;;;;;;1.67;1.50;;;2.10;98.20;;;;;;6159094;23;20436;-78
2021/01/13 07:31:57;;;;;;;1.60;1.40;;;2.10;98.20;;;;;;6158968;23;20421;-77
2021/01/13 07:34:31;;;;;;;1.63;1.40;;;2.10;98.20;;;;;;6156750;23;20441;-76
2021/01/13 07:37:04;;;;;;;1.70;1.40;;;2.10;98.20;;;;;;6167645;23;20429;-77
2021/01/13 07:40:09;;;;;;;1.63;1.40;;;2.10;98.20;;;;;;6157239;23;20657;-76
2021/01/13 07:42:37;;;;;;;1.70;1.40;;;2.10;98.20;;;;;;6105710;23;20444;-75
2021/01/13 07:45:06;;;;;;;1.70;1.40;;;2.10;98.20;;;;;;6158591;23;20460;-78
2021/01/13 07:48:06;;;;;;;1.70;1.50;;;2.10;98.20;;;;;;6158822;23;20958;-76
2021/01/13 07:50:33;;;;;;;1.60;1.40;;;2.00;98.20;;;;;;6159511;23;20420;-77
2021/01/13 07:53:06;;;;;;;1.67;1.40;;;2.00;98.20;;;;;;6160537;23;20452;-78
2021/01/13 07:55:37;;;;;;;1.70;1.50;;;2.00;98.20;;;;;;6159902;23;20417;-75
2021/01/13 07:58:19;;;;;;;1.67;1.40;;;2.00;98.20;;;;;;6157256;23;20460;-77
2021/01/13 08:00:59;;;;;;;1.70;1.60;;;2.00;98.20;;;;;;6165843;23;20409;-76
2021/01/13 08:04:23;;;;;;;1.60;1.40;;;2.00;98.20;;;;;;6154409;23;20435;-76
2021/01/13 08:06:53;;;;;;;1.70;1.40;;;2.00;98.20;;;;;;6159037;23;20424;-78
2021/01/13 08:09:20;;;;;;;1.70;1.40;;;2.00;98.20;;;;;;6155471;23;20437;-78
2021/01/13 08:12:16;;;;;;;1.70;1.50;;;2.00;98.20;;;;;;6158414;23;20428;-76
2021/01/13 08:15:27;;;;;;;1.70;1.50;;;2.10;98.20;;;;;;6158259;23;20433;-74
2021/01/13 08:18:32;;;;;;;1.70;1.50;;;2.10;98.20;;;;;;6142671;23;20496;-75
2021/01/13 08:21:13;;;;;;;1.70;1.50;;;2.20;98.20;;;;;;6159639;23;20441;-77
2021/01/13 08:23:48;;;;;;;1.70;1.50;;;2.20;98.20;;;;;;6160271;23;20870;-76
2021/01/13 08:26:17;;;;;;;1.70;1.50;;;2.20;98.20;;;;;;6161790;23;20570;-75
2021/01/13 08:28:45;;;;;;;1.70;1.50;;;2.20;98.20;;;;;;6158100;23;20779;-75
2021/01/13 08:31:18;;;;;;;1.63;1.50;;;2.30;98.20;;;;;;6158186;23;20425;-75
2021/01/13 08:33:48;;;;;;;1.67;1.50;;;2.30;98.20;;;;;;6158897;23;20440;-76
2021/01/13 08:36:16;;;;;;;1.60;1.40;;;2.30;98.20;;;;;;6156684;23;20759;-77
2021/01/13 08:39:04;;;;;;;1.63;1.40;;;2.30;98.20;;;;;;6159382;23;20449;-78
2021/01/13 08:41:31;;;;;;;1.60;1.40;;;2.30;98.20;;;;;;6160127;23;20429;-75
2021/01/13 08:44:04;;;;;;;1.67;1.40;;;2.30;98.20;;;;;;6157481;23;20443;-76
2021/01/13 08:46:40;;;;;;;1.70;1.40;;;2.30;98.20;;;;;;6159508;23;20439;-76
2021/01/13 08:49:07;;;;;;;1.67;1.40;;;2.30;98.20;;;;;;6159248;23;20440;-75
2021/01/13 08:51:35;;;;;;;1.63;1.40;;;2.40;98.20;;;;;;6172118;23;20437;-75
2021/01/13 08:54:21;;;;;;;1.60;1.33;;;2.40;98.20;;;;;;6163182;23;20453;-75
2021/01/13 08:56:59;;;;;;;1.60;1.40;;;2.50;98.20;;;;;;6158873;23;20425;-76
2021/01/13 08:59:43;;;;;;;1.67;1.40;;;2.70;98.20;;;;;;6161843;23;20499;-74
2021/01/13 09:02:12;;;;;;;1.70;1.53;;;2.80;98.20;;;;;;6162193;23;20397;-75
2021/01/13 09:04:54;;;;;;;1.63;1.40;;;2.90;98.20;;;;;;6162012;23;20405;-75
2021/01/13 09:07:23;;;;;;;1.70;1.50;;;3.00;98.20;;;;;;6154818;23;20432;-75
2021/01/13 09:10:01;;;;;;;1.70;1.50;;;3.00;98.20;;;;;;6161420;23;20441;-77
2021/01/13 09:12:33;;;;;;;1.63;1.40;;;3.10;98.20;;;;;;6160420;23;20405;-76
2021/01/13 09:15:27;;;;;;;1.60;1.40;;;3.10;98.20;;;;;;6158076;23;20445;-76
2021/01/13 09:17:58;;;;;;;1.60;1.40;;;3.00;98.20;;;;;;6158559;23;20448;-78
2021/01/13 09:20:27;;;;;;;1.70;1.50;;;3.00;98.20;;;;;;6163368;23;20401;-75
2021/01/13 09:22:57;;;;;;;1.70;1.40;;;3.00;98.20;;;;;;6165032;23;20417;-76
2021/01/13 09:25:25;;;;;;;1.67;1.40;;;3.00;98.20;;;;;;6166018;23;20413;-76
2021/01/13 09:27:53;;;;;;;1.70;1.50;;;3.00;98.20;;;;;;6160462;23;20779;-77
2021/01/13 09:30:37;;;;;;;1.70;1.40;;;3.10;98.20;;;;;;6150294;23;20430;-76
2021/01/13 09:33:08;;;;;;;1.63;1.30;;;3.10;98.20;;;;;;6156162;23;21219;-76
2021/01/13 09:35:38;;;;;;;1.70;1.40;;;3.10;98.20;;;;;;6156738;23;20452;-77
2021/01/13 09:38:08;;;;;;;1.60;1.40;;;3.20;98.20;;;;;;6167583;23;20722;-77
2021/01/13 09:40:55;;;;;;;1.70;1.50;;;3.30;98.20;;;;;;6156102;23;20476;-78
2021/01/13 09:46:30;;;;;;;1.70;1.47;;;3.40;98.20;;;;;;6149226;23;20492;-76
2021/01/13 09:48:58;;;;;;;1.60;1.40;;;3.50;98.20;;;;;;6167571;23;20520;-79
2021/01/13 09:51:26;;;;;;;1.70;1.60;;;3.50;98.20;;;;;;6163668;23;20418;-77
2021/01/13 09:53:59;;;;;;;2.00;1.80;;;3.60;98.20;;;;;;6166447;23;20876;-76
2021/01/13 09:56:26;;;;;;;1.63;1.30;;;3.60;98.20;;;;;;6154988;23;20495;-78
2021/01/13 09:58:53;;;;;;;1.60;1.30;;;3.70;98.20;;;;;;6154029;23;20468;-76
2021/01/13 10:01:22;;;;;;;1.63;1.40;;;3.70;98.20;;;;;;6155390;23;20428;-78
2021/01/13 10:03:50;;;;;;;1.70;1.50;;;3.70;98.20;;;;;;6155779;23;20772;-77
2021/01/13 10:06:19;;;;;;;1.70;1.40;;;3.80;98.20;;;;;;6158929;23;20432;-75
2021/01/13 10:08:46;;;;;;;1.63;1.40;;;3.80;98.20;;;;;;6156804;23;20448;-75
2021/01/13 10:11:15;;;;;;;1.63;1.40;;;3.90;98.20;;;;;;6158068;23;20425;-77
2021/01/13 10:13:43;;;;;;;2.53;2.33;;;3.90;98.20;;;;;;6156225;23;20448;-75
2021/01/13 10:16:11;;;;;;;1.70;1.40;;;4.00;98.20;;;;;;6165348;23;20757;-77
2021/01/13 10:18:51;;;;;;;1.63;1.40;;;4.00;98.20;;;;;;6157438;23;20449;-75
2021/01/13 10:21:18;;;;;;;1.63;1.37;;;4.00;98.20;;;;;;6159706;23;20422;-76
2021/01/13 10:23:46;;;;;;;1.60;1.37;;;4.10;98.20;;;;;;6160578;23;20421;-75
2021/01/13 10:26:14;;;;;;;1.67;1.40;;;4.10;98.20;;;;;;6159504;23;20425;-76
2021/01/13 10:28:41;;;;;;;1.63;1.40;;;4.10;98.20;;;;;;6158175;23;20480;-77
2021/01/13 10:31:09;;;;;;;1.60;1.30;;;4.20;98.20;;;;;;6157127;23;20733;-76
2021/01/13 10:33:50;;;;;;;1.70;1.40;;;4.30;98.20;;;;;;6154634;23;20441;-76
2021/01/13 10:36:38;;;;;;;1.67;1.40;;;4.40;98.20;;;;;;6156481;23;20918;-75
2021/01/13 10:39:11;;;;;;;1.60;1.30;;;4.40;98.20;;;;;;6157435;23;20453;-76
2021/01/13 10:41:40;;;;;;;1.70;1.40;;;4.50;98.20;;;;;;6155703;23;20414;-75
2021/01/13 10:44:10;;;;;;;1.67;1.30;;;4.50;98.20;;;;;;6154416;23;20417;-75
2021/01/13 10:46:52;;;;;;;1.60;1.30;;;4.50;98.20;;;;;;6156556;23;20476;-75
2021/01/13 10:49:24;;;;;;;1.67;1.30;;;4.50;98.20;;;;;;6156132;23;20783;-74
2021/01/13 10:51:53;;;;;;;1.60;1.40;;;4.50;98.20;;;;;;6155649;23;20413;-75
2021/01/13 10:54:21;;;;;;;1.60;1.30;;;4.50;98.20;;;;;;6153719;23;20453;-75
2021/01/13 10:57:05;;;;;;;1.60;1.30;;;4.60;98.20;;;;;;6159621;23;20424;-75
2021/01/13 10:59:32;;;;;;;1.70;1.40;;;4.50;98.20;;;;;;6161307;23;20523;-76
2021/01/13 11:02:03;;;;;;;1.70;1.50;;;4.60;98.20;;;;;;6159021;23;20429;-76
2021/01/13 11:04:38;;;;;;;1.70;1.40;;;4.60;98.20;;;;;;6162018;23;20409;-75
2021/01/13 11:07:10;;;;;;;1.80;1.37;;;4.70;98.20;;;;;;6160055;23;20859;-75
2021/01/13 11:09:40;;;;;;;1.70;1.40;;;4.80;98.20;;;;;;6157684;23;20451;-76
2021/01/13 11:12:09;;;;;;;1.60;1.30;;;4.80;98.20;;;;;;6169512;23;20453;-77
2021/01/13 11:14:43;;;;;;;1.67;1.30;;;4.80;98.20;;;;;;6168137;23;20829;-75
2021/01/13 11:17:12;;;;;;;1.70;1.40;;;4.90;98.20;;;;;;6162585;23;20406;-76
2021/01/13 11:19:45;;;;;;;1.63;1.30;;;4.90;98.20;;;;;;6159392;23;20436;-76
2021/01/13 11:22:13;;;;;;;1.70;1.40;;;5.00;98.20;;;;;;6168250;23;20440;-76
2021/01/13 11:24:42;;;;;;;1.70;1.47;;;5.00;98.20;;;;;;6159632;23;20428;-76
2021/01/13 11:27:13;;;;;;;1.60;1.30;;;5.00;98.20;;;;;;6168250;23;20471;-76
2021/01/13 11:29:42;;;;;;;1.67;1.30;;;5.00;98.20;;;;;;6156325;23;20445;-76
2021/01/13 11:32:13;;;;;;;1.67;1.20;;;5.00;98.20;;;;;;6157074;23;20424;-75
2021/01/13 11:34:40;;;;;;;1.60;1.30;;;5.10;98.20;;;;;;6154902;23;20516;-75
2021/01/13 11:37:33;;;;;;;1.70;1.40;;;5.10;98.20;;;;;;6157276;23;20433;-76
2021/01/13 11:40:31;;;;;;;1.67;1.40;;;5.10;98.20;;;;;;6157507;23;20409;-76
2021/01/13 11:43:21;;;;;;;1.70;1.30;;;5.00;98.20;;;;;;6157434;23;20448;-75
2021/01/13 11:46:02;;;;;;;3.07;2.80;;;5.00;98.20;;;;;;6157180;23;20468;-76
2021/01/13 11:48:33;;;;;;;1.63;1.30;;;5.00;98.20;;;;;;6159322;23;20448;-76
2021/01/13 11:51:03;;;;;;;1.70;1.40;;;5.00;98.20;;;;;;6155714;23;20413;-76
2021/01/13 11:53:32;;;;;;;1.60;1.30;;;5.10;98.20;;;;;;6158334;23;20450;-75
2021/01/13 11:56:03;;;;;;;1.70;1.60;;;5.10;98.20;;;;;;6161023;23;20422;-75
2021/01/13 11:58:32;;;;;;;1.60;1.33;;;5.10;98.20;;;;;;6159425;23;20449;-75
2021/01/13 12:00:59;;;;;;;1.60;1.30;;;5.10;98.20;;;;;;6160108;23;20459;-78
2021/01/13 12:03:26;;;;;;;1.70;1.40;;;5.10;98.20;;;;;;6158895;23;20926;-75
2021/01/13 12:05:52;;;;;;;1.70;1.60;;;5.10;98.20;;;;;;6163446;23;20442;-76
2021/01/13 12:08:29;;;;;;;1.63;1.30;;;5.20;98.20;;;;;;6160128;23;20449;-76
2021/01/13 12:10:55;;;;;;;1.70;1.33;;;5.20;98.20;;;;;;6159721;23;20416;-76
2021/01/13 12:13:23;;;;;;;1.70;1.60;;;5.20;98.20;;;;;;6158907;23;20449;-76
2021/01/13 12:15:56;;;;;;;1.60;1.30;;;5.20;98.20;;;;;;6159211;23;20425;-76
2021/01/13 12:18:24;;;;;;;1.70;1.30;;;5.20;98.20;;;;;;6159429;23;20445;-76
2021/01/13 12:20:55;;;;;;;1.67;1.30;;;5.20;98.20;;;;;;6159780;23;20429;-76
2021/01/13 12:23:29;;;;;;;1.60;1.30;;;5.20;98.20;;;;;;6160743;23;20460;-76
2021/01/13 12:26:14;;;;;;;1.70;1.30;;;5.20;98.20;;;;;;6156679;23;20508;-76
2021/01/13 12:28:41;;;;;;;1.60;1.30;;;5.20;98.20;;;;;;6159168;23;20437;-75
2021/01/13 12:31:09;;;;;;;1.60;1.40;;;5.30;98.20;;;;;;6159116;23;20428;-76
2021/01/13 12:33:39;;;;;;;1.70;1.30;;;5.30;98.20;;;;;;6157258;23;20449;-76
2021/01/13 12:36:19;;;;;;;1.60;1.30;;;5.30;98.20;;;;;;6158205;23;20421;-76
2021/01/13 12:38:48;;;;;;;1.63;1.30;;;5.40;98.20;;;;;;6159158;23;20507;-76
2021/01/13 12:41:23;;;;;;;1.63;1.30;;;5.50;98.20;;;;;;6158945;23;20421;-76
2021/01/13 12:43:50;;;;;;;1.63;1.30;;;5.50;98.20;;;;;;6159207;23;20456;-76
2021/01/13 12:46:32;;;;;;;1.67;1.30;;;5.60;98.20;;;;;;6153951;23;20945;-75
2021/01/13 12:48:59;;;;;;;1.60;1.30;;;5.60;98.20;;;;;;6159416;23;20456;-75
2021/01/13 12:51:26;;;;;;;1.60;1.30;;;5.70;98.20;;;;;;6160950;23;20720;-76
2021/01/13 12:53:54;;;;;;;3.40;3.10;;;5.70;98.20;;;;;;6150830;23;20451;-75
2021/01/13 12:56:25;;;;;;;1.60;1.30;;;5.70;98.20;;;;;;6151380;23;21093;-76
2021/01/13 12:58:52;;;;;;;1.70;1.40;;;5.80;98.20;;;;;;6151944;23;20528;-76
2021/01/13 13:01:20;;;;;;;1.60;1.20;;;5.70;98.20;;;;;;6152175;23;20448;-76
2021/01/13 13:03:51;;;;;;;1.60;1.20;;;5.70;98.20;;;;;;6156214;23;20428;-76
2021/01/13 13:06:24;;;;;;;1.60;1.30;;;5.80;98.20;;;;;;6158917;23;20416;-76
2021/01/13 13:08:51;;;;;;;1.60;1.20;;;5.80;98.20;;;;;;6158910;23;20990;-76
2021/01/13 13:11:18;;;;;;;1.63;1.30;;;5.90;98.20;;;;;;6154419;23;20424;-76
2021/01/13 13:13:44;;;;;;;2.47;2.27;;;6.10;98.20;;;;;;6164837;23;20459;-76
2021/01/13 13:16:12;;;;;;;1.70;1.30;;;6.20;98.20;;;;;;6156218;23;20425;-76
2021/01/13 13:18:39;;;;;;;1.60;1.30;;;6.40;98.20;;;;;;6156844;23;20786;-76
2021/01/13 13:21:09;;;;;;;1.67;1.30;;;6.30;98.20;;;;;;6156648;23;20778;-76
2021/01/13 13:23:36;;;;;;;1.70;1.30;;;6.20;98.20;;;;;;6155560;23;20494;-76
2021/01/13 13:26:03;;;;;;;1.90;1.70;;;6.20;98.20;;;;;;6154789;23;20839;-76
2021/01/13 13:28:30;;;;;;;1.70;1.30;;;6.10;98.20;;;;;;6154131;23;20449;-76
2021/01/13 13:30:56;;;;;;;1.67;1.30;;;6.00;98.20;;;;;;6155430;23;20433;-76